createdAt,value
2023-01-25T00:09:30.325Z,0.0
2023-01-25T00:15:54.698Z,0.0
2023-01-25T00:22:18.209Z,0.0
2023-01-25T00:28:42.414Z,0.0
2023-01-25T00:35:05.854Z,0.0
2023-01-25T00:41:30.020Z,0.0
2023-01-25T00:47:53.758Z,0.0
2023-01-25T00:54:16.534Z,0.0
2023-01-25T01:00:39.544Z,0.0
2023-01-25T01:07:05.630Z,0.0
2023-01-25T01:13:27.509Z,0.0
2023-01-25T01:19:51.432Z,0.0
2023-01-25T01:26:15.304Z,0.0
2023-01-25T01:39:07.104Z,0.0
2023-01-25T01:53:04.486Z,0.0
2023-01-25T01:59:28.409Z,0.0
2023-01-25T02:05:52.758Z,0.0
2023-01-25T02:12:16.653Z,0.0
2023-01-25T02:19:32.907Z,0.0
2023-01-25T02:33:07.320Z,0.0
2023-01-25T02:39:30.852Z,0.0
2023-01-25T02:45:55.684Z,0.0
2023-01-25T02:55:26.712Z,0.0
2023-01-25T03:12:13.148Z,0.0
2023-01-25T03:18:37.327Z,0.0
2023-01-25T03:25:00.833Z,0.0
2023-01-25T03:37:28.998Z,0.0
2023-01-25T03:47:02.534Z,0.0
2023-01-25T03:53:27.311Z,0.0
2023-01-25T03:59:52.701Z,0.0
2023-01-25T04:06:18.105Z,0.0
2023-01-25T04:13:34.023Z,0.0
2023-01-25T04:19:59.760Z,0.0
2023-01-25T04:26:25.702Z,0.0
2023-01-25T04:36:13.320Z,0.0
2023-01-25T04:42:37.383Z,0.0
2023-01-25T04:54:36.276Z,0.0
2023-01-25T05:00:59.881Z,0.0
2023-01-25T05:07:23.499Z,0.0
2023-01-25T05:13:47.831Z,0.0
2023-01-25T05:28:17.360Z,0.0
2023-01-25T05:34:55.008Z,0.0
2023-01-25T05:44:14.215Z,0.0
2023-01-25T05:50:36.822Z,0.0
2023-01-25T05:57:00.410Z,0.0
2023-01-25T06:04:22.139Z,0.0
2023-01-25T06:14:49.011Z,0.0
2023-01-25T06:25:52.642Z,0.0
2023-01-25T06:32:17.456Z,0.0
2023-01-25T06:38:39.397Z,0.0
2023-01-25T06:45:03.792Z,0.0
2023-01-25T06:51:28.970Z,0.0
2023-01-25T06:57:53.093Z,0.0
2023-01-25T07:10:20.497Z,0.0
2023-01-25T07:16:44.478Z,0.0
2023-01-25T07:23:07.254Z,0.0
2023-01-25T07:29:30.477Z,0.0
2023-01-25T07:35:56.786Z,0.0
2023-01-25T07:46:26.477Z,0.0
2023-01-25T07:53:05.130Z,0.0
2023-01-25T07:59:29.543Z,0.04598662207357859
2023-01-25T08:11:40.127Z,2.5138461538461536
2023-01-25T08:18:07.457Z,3.1830434782608688
2023-01-25T08:27:46.000Z,4.259230769230771
2023-01-25T08:51:06.948Z,7.098260869565216
2023-01-25T08:59:36.695Z,8.279732441471575
2023-01-25T09:08:17.552Z,9.988227424749162
2023-01-25T09:19:44.012Z,11.619565217391301
2023-01-25T09:26:10.155Z,11.74317725752508
2023-01-25T09:32:35.739Z,13.165819397993317
2023-01-25T09:46:57.557Z,14.15421404682275
2023-01-25T09:57:43.795Z,12.990367892976598
2023-01-25T10:04:09.553Z,13.496889632107019
2023-01-25T10:10:34.625Z,14.214949832775932
2023-01-25T10:17:51.055Z,14.865117056856185
2023-01-25T10:28:32.378Z,14.78732441471572
2023-01-25T10:35:00.689Z,13.92140468227425
2023-01-25T10:41:43.094Z,13.972341137123735
2023-01-25T10:48:09.822Z,14.43735785953177
2023-01-25T11:05:18.095Z,14.235117056856184
2023-01-25T11:11:44.936Z,13.916187290969905
2023-01-25T11:18:32.980Z,13.879163879598659
2023-01-25T11:28:38.680Z,14.862508361204018
2023-01-25T11:38:29.338Z,15.229565217391315
2023-01-25T11:46:19.889Z,16.22110367892976
2023-01-25T11:52:45.292Z,16.292441471571916
2023-01-25T11:59:11.345Z,15.59575250836121
2023-01-25T12:06:48.564Z,14.436488294314376
2023-01-25T12:13:14.607Z,13.625585284280936
2023-01-25T12:19:40.246Z,12.983812709030103
2023-01-25T12:28:08.383Z,14.470167224080264
2023-01-25T12:34:33.798Z,13.828996655518404
2023-01-25T12:48:22.460Z,12.199264214046822
2023-01-25T13:01:08.071Z,11.285618729096994
2023-01-25T13:12:48.129Z,10.593913043478267
2023-01-25T13:19:14.146Z,10.97615384615384
2023-01-25T13:25:40.266Z,12.111003344481599
2023-01-25T13:39:14.211Z,13.523311036789298
2023-01-25T13:53:52.035Z,12.103377926421404
2023-01-25T14:00:20.175Z,10.645986622073586
2023-01-25T14:15:43.814Z,8.745986622073577
2023-01-25T14:22:10.878Z,8.315986622073574
2023-01-25T14:28:35.041Z,7.23949832775919
2023-01-25T14:38:13.769Z,5.174749163879596
2023-01-25T14:44:39.435Z,4.498695652173909
2023-01-25T14:51:04.227Z,3.8824749163879604
2023-01-25T14:57:29.393Z,3.269331103678927
2023-01-25T15:03:53.869Z,2.6740133779264217
2023-01-25T15:11:18.907Z,1.4972240802675578
2023-01-25T15:18:14.042Z,0.09331103678929767
2023-01-25T15:24:40.566Z,0.0
2023-01-25T15:31:07.689Z,0.0
2023-01-25T15:50:56.510Z,0.0
2023-01-25T15:57:19.655Z,0.0
2023-01-25T16:35:52.745Z,0.0
2023-01-25T16:48:22.516Z,0.0
2023-01-25T16:54:45.332Z,0.0
2023-01-25T17:01:11.605Z,0.0
2023-01-25T17:07:33.805Z,0.0
2023-01-25T17:13:57.968Z,0.0
2023-01-25T17:28:37.026Z,0.0
2023-01-25T17:37:18.663Z,0.0
2023-01-25T17:46:15.980Z,0.0
2023-01-25T17:52:40.449Z,0.0
2023-01-25T17:59:06.041Z,0.0
2023-01-25T18:05:31.131Z,0.0
2023-01-25T18:11:55.106Z,0.0
2023-01-25T18:18:20.480Z,0.0
2023-01-25T18:24:43.443Z,0.0
2023-01-25T18:31:09.164Z,0.0
2023-01-25T18:37:32.534Z,0.0
2023-01-25T18:46:06.603Z,0.0
2023-01-25T18:52:32.357Z,0.0
2023-01-25T19:04:57.394Z,0.0
2023-01-25T19:11:22.618Z,0.0
2023-01-25T19:19:57.945Z,0.0
2023-01-25T19:30:29.007Z,0.0
2023-01-25T19:36:58.818Z,0.0
2023-01-25T19:43:26.801Z,0.0
2023-01-25T19:53:14.722Z,0.0
2023-01-25T19:59:43.165Z,0.0
2023-01-25T20:10:08.042Z,0.0
2023-01-25T20:20:36.848Z,0.0
2023-01-25T20:27:04.439Z,0.0
2023-01-25T20:43:51.591Z,0.0
2023-01-25T20:50:18.262Z,0.0
2023-01-25T20:56:41.655Z,0.0
2023-01-25T21:18:41.775Z,0.0
2023-01-25T21:25:08.109Z,0.0
2023-01-25T21:40:22.400Z,0.0
2023-01-25T21:46:52.305Z,0.0
2023-01-25T22:03:31.843Z,0.0
2023-01-25T22:14:59.585Z,0.0
2023-01-25T22:21:22.441Z,0.0
2023-01-25T22:27:45.428Z,0.0
2023-01-25T22:34:08.784Z,0.0
2023-01-25T22:40:31.750Z,0.0
2023-01-25T22:50:41.729Z,0.0
2023-01-25T22:57:05.927Z,0.0
2023-01-25T23:07:14.324Z,0.0
2023-01-25T23:13:37.772Z,0.0
2023-01-25T23:29:17.902Z,0.0
2023-01-25T23:37:08.137Z,0.0
2023-01-25T23:43:32.002Z,0.0
2023-01-25T23:49:54.687Z,0.0
2023-01-25T23:56:19.028Z,0.0
